createdAt,value
2022-08-22T00:01:07.058Z,100585.86
2022-08-22T00:02:20.396Z,100585.86
2022-08-22T00:02:43.366Z,100503.23
2022-08-22T00:02:48.855Z,100501.62
2022-08-22T00:02:53.247Z,100488.06
2022-08-22T00:02:54.356Z,100514.84
2022-08-22T00:02:57.968Z,100578.75
2022-08-22T00:02:58.998Z,100573.45
2022-08-22T00:03:01.453Z,100504.23
2022-08-22T00:03:06.692Z,100571.03
2022-08-22T00:03:35.015Z,100578.63
2022-08-22T00:04:48.282Z,100575.86
2022-08-22T00:06:00.770Z,100581.42
2022-08-22T00:07:30.554Z,100575.86
2022-08-22T00:09:06.736Z,100573.08
2022-08-22T00:10:21.019Z,100581.42
2022-08-22T00:11:37.364Z,100576.97
2022-08-22T00:12:59.565Z,100580.88
2022-08-22T00:14:16.820Z,100577.30
2022-08-22T00:15:42.122Z,100571.73
2022-08-22T00:16:43.797Z,100571.73
2022-08-22T00:18:09.744Z,100568.13
2022-08-22T00:19:25.566Z,100576.14
2022-08-22T00:20:35.326Z,100578.09
2022-08-22T00:21:50.733Z,100574.52
2022-08-22T00:23:12.216Z,100575.63
2022-08-22T00:24:28.095Z,100576.46
2022-08-22T00:25:41.387Z,100574.80
2022-08-22T00:26:48.452Z,100572.02
2022-08-22T00:28:14.662Z,100580.36
2022-08-22T00:29:21.302Z,100579.53
2022-08-22T00:30:26.404Z,100590.66
2022-08-22T00:31:33.123Z,100587.88
2022-08-22T00:32:48.933Z,100579.82
2022-08-22T00:34:11.966Z,100579.53
2022-08-22T00:35:18.720Z,100581.48
2022-08-22T00:36:50.478Z,100584.27
2022-08-22T00:38:12.496Z,100582.31
2022-08-22T00:39:40.608Z,100584.55
2022-08-22T00:40:58.666Z,100579.31
2022-08-22T00:42:14.624Z,100577.65
2022-08-22T00:43:40.874Z,100579.88
2022-08-22T00:44:50.716Z,100574.32
2022-08-22T00:46:14.035Z,100579.34
2022-08-22T00:47:29.170Z,100575.77
2022-08-22T00:48:45.102Z,100578.83
2022-08-22T00:50:11.256Z,100583.56
2022-08-22T00:51:17.947Z,100588.28
2022-08-22T00:52:39.490Z,100590.23
2022-08-22T00:54:18.193Z,100587.45
2022-08-22T00:55:34.918Z,100583.84
2022-08-22T00:57:07.388Z,100587.74
2022-08-22T00:58:30.503Z,100599.18
2022-08-22T01:00:05.258Z,100599.47
2022-08-22T01:01:11.961Z,100610.04
2022-08-22T01:02:24.351Z,100597.29
2022-08-22T01:03:43.148Z,100605.63
2022-08-22T01:04:50.534Z,100604.77
2022-08-22T01:06:18.224Z,100608.66
2022-08-22T01:07:38.003Z,100605.88
2022-08-22T01:09:19.915Z,100609.78
2022-08-22T01:10:43.112Z,100610.06
2022-08-22T01:12:01.418Z,100611.18
2022-08-22T01:13:14.186Z,100610.67
2022-08-22T01:14:43.666Z,100607.34
2022-08-22T01:15:49.858Z,100610.13
2022-08-22T01:17:19.449Z,100613.19
2022-08-22T01:18:38.242Z,100607.11
2022-08-22T01:20:04.886Z,100600.72
2022-08-22T01:21:28.129Z,100613.24
2022-08-22T01:22:56.060Z,100611.30
2022-08-22T01:24:17.962Z,100608.83
2022-08-22T01:25:32.162Z,100606.34
2022-08-22T01:26:54.181Z,100609.40
2022-08-22T01:28:30.881Z,100611.63
2022-08-22T01:30:03.538Z,100609.69
2022-08-22T01:33:02.977Z,100610.73
2022-08-22T01:34:27.742Z,100608.34
2022-08-22T01:35:54.107Z,100609.45
2022-08-22T01:37:09.565Z,100613.89
2022-08-22T01:38:17.529Z,100613.06
2022-08-22T01:39:42.050Z,100605.84
2022-08-22T01:40:54.699Z,100609.45
2022-08-22T01:42:22.480Z,100617.79
2022-08-22T01:43:59.715Z,100615.84
2022-08-22T01:45:11.717Z,100613.06
2022-08-22T01:46:33.742Z,100612.23
2022-08-22T01:47:46.672Z,100617.79
2022-08-22T01:48:56.501Z,100619.73
2022-08-22T01:50:15.380Z,100622.23
2022-08-22T01:52:51.371Z,100624.62
2022-08-22T01:54:04.161Z,100630.28
2022-08-22T01:55:22.956Z,100628.62
2022-08-22T01:56:30.175Z,100629.45
2022-08-22T01:57:36.853Z,100626.67
2022-08-22T01:58:58.815Z,100635.53
2022-08-22T02:00:09.370Z,100633.58
2022-08-22T02:01:26.663Z,100636.36
2022-08-22T02:02:36.212Z,100635.53
2022-08-22T02:03:59.902Z,100636.36
2022-08-22T02:05:06.883Z,100642.75
2022-08-22T02:06:19.774Z,100647.47
2022-08-22T02:07:46.008Z,100644.70
2022-08-22T02:08:52.681Z,100640.25
2022-08-22T02:10:14.604Z,100644.98
2022-08-22T02:11:56.037Z,100644.98
2022-08-22T02:13:06.301Z,100641.40
2022-08-22T02:14:32.568Z,100642.52
2022-08-22T02:15:44.000Z,100637.24
2022-08-22T02:16:51.044Z,100643.91
2022-08-22T02:18:06.547Z,100643.08
2022-08-22T02:19:19.297Z,100641.42
2022-08-22T02:20:29.070Z,100641.73
2022-08-22T02:21:38.783Z,100645.62
2022-08-22T02:22:54.721Z,100652.84
2022-08-22T02:24:04.230Z,100643.96
2022-08-22T02:25:17.158Z,100655.91
2022-08-22T02:26:26.868Z,100653.41
2022-08-22T02:27:59.439Z,100654.52
2022-08-22T02:29:17.761Z,100658.45
2022-08-22T02:30:24.832Z,100655.95
2022-08-22T02:31:40.609Z,100657.06
2022-08-22T02:32:47.368Z,100662.62
2022-08-22T02:33:54.128Z,100663.73
2022-08-22T02:35:13.681Z,100662.08
2022-08-22T02:36:44.339Z,100660.13
2022-08-22T02:37:59.836Z,100655.72
2022-08-22T02:39:09.741Z,100664.05
2022-08-22T02:40:22.806Z,100657.11
2022-08-22T02:41:50.520Z,100661.84
2022-08-22T02:43:15.213Z,100653.78
2022-08-22T02:44:37.053Z,100655.77
2022-08-22T02:45:52.770Z,100650.77
2022-08-22T02:47:08.493Z,100656.61
2022-08-22T02:48:33.464Z,100654.98
2022-08-22T02:49:52.320Z,100658.87
2022-08-22T02:51:05.159Z,100660.81
2022-08-22T02:52:14.615Z,100656.38
2022-08-22T02:53:30.087Z,100658.31
2022-08-22T02:54:56.073Z,100654.70
2022-08-22T02:56:05.757Z,100654.98
2022-08-22T02:57:28.754Z,100662.52
2022-08-22T02:58:49.845Z,100653.36
2022-08-22T03:00:04.389Z,100655.30
2022-08-22T03:01:16.674Z,100650.86
2022-08-22T03:02:29.264Z,100656.69
2022-08-22T03:03:35.922Z,100658.64
2022-08-22T03:04:48.348Z,100661.42
2022-08-22T03:06:04.813Z,100673.36
2022-08-22T03:07:23.353Z,100667.28
2022-08-22T03:08:30.535Z,100671.70
2022-08-22T03:09:37.182Z,100670.86
2022-08-22T03:10:56.099Z,100674.78
2022-08-22T03:12:25.310Z,100673.95
2022-08-22T03:14:05.276Z,100664.51
2022-08-22T03:15:20.847Z,100675.89
2022-08-22T03:16:30.824Z,100677.28
2022-08-22T03:17:37.866Z,100667.30
2022-08-22T03:18:50.518Z,100672.05
2022-08-22T03:20:03.787Z,100672.84
2022-08-22T03:21:34.832Z,100672.05
2022-08-22T03:22:53.774Z,100664.52
2022-08-22T03:25:39.218Z,100676.41
2022-08-22T03:26:54.930Z,100668.44
2022-08-22T03:28:01.616Z,100671.21
2022-08-22T03:29:08.459Z,100672.33
2022-08-22T03:30:21.394Z,100676.77
2022-08-22T03:31:25.511Z,100671.21
2022-08-22T03:32:48.634Z,100677.59
2022-08-22T03:34:19.758Z,100671.21
2022-08-22T03:35:26.449Z,100677.59
2022-08-22T03:36:31.364Z,100676.77
2022-08-22T03:37:41.211Z,100673.16
2022-08-22T03:39:17.227Z,100668.44
2022-08-22T03:40:48.639Z,100673.98
2022-08-22T03:42:01.965Z,100681.17
2022-08-22T03:43:11.732Z,100671.21
2022-08-22T03:44:30.211Z,100680.38
2022-08-22T03:45:51.993Z,100685.09
2022-08-22T03:47:21.470Z,100676.77
2022-08-22T03:48:58.218Z,100679.55
2022-08-22T03:50:24.427Z,100686.73
2022-08-22T03:51:31.079Z,100679.55
2022-08-22T03:53:04.877Z,100677.87
2022-08-22T03:54:11.569Z,100680.66
2022-08-22T03:55:24.102Z,100680.66
2022-08-22T03:56:49.490Z,100681.48
2022-08-22T03:58:00.845Z,100681.48
2022-08-22T03:59:42.765Z,100681.48
2022-08-22T04:01:07.817Z,100675.94
2022-08-22T04:02:24.622Z,100687.87
2022-08-22T04:03:57.104Z,100685.09
2022-08-22T04:05:26.452Z,100680.66
2022-08-22T04:06:49.915Z,100680.66
2022-08-22T04:08:14.972Z,100681.77
2022-08-22T04:09:42.924Z,100675.10
2022-08-22T04:11:18.170Z,100682.60
2022-08-22T04:12:30.571Z,100685.38
2022-08-22T04:14:05.867Z,100684.27
2022-08-22T04:15:31.579Z,100684.55
2022-08-22T04:16:56.753Z,100686.20
2022-08-22T04:18:24.276Z,100685.09
2022-08-22T04:19:47.760Z,100687.87
2022-08-22T04:21:09.408Z,100680.06
2022-08-22T04:22:38.524Z,100680.89
2022-08-22T04:24:16.949Z,100680.06
2022-08-22T04:25:24.898Z,100683.67
2022-08-22T04:26:41.845Z,100681.45
2022-08-22T04:27:55.204Z,100688.67
2022-08-22T04:29:20.088Z,100683.95
2022-08-22T04:30:36.394Z,100687.24
2022-08-22T04:31:48.981Z,100686.96
2022-08-22T04:32:59.837Z,100681.13
2022-08-22T04:34:07.232Z,100683.59
2022-08-22T04:35:39.149Z,100681.65
2022-08-22T04:36:57.866Z,100685.26
2022-08-22T04:38:13.495Z,100668.88
2022-08-22T04:39:22.714Z,100672.20
2022-08-22T04:40:42.024Z,100677.48
2022-08-22T04:41:51.506Z,100677.20
2022-08-22T04:42:58.241Z,100680.50
2022-08-22T04:44:07.579Z,100673.83
2022-08-22T04:45:29.363Z,100682.70
2022-08-22T04:46:45.278Z,100686.01
2022-08-22T04:47:58.617Z,100672.67
2022-08-22T04:49:21.912Z,100683.50
2022-08-22T04:50:34.494Z,100687.08
2022-08-22T04:51:44.821Z,100676.52
2022-08-22T04:53:10.076Z,100674.57
2022-08-22T04:54:45.479Z,100681.79
2022-08-22T04:56:04.142Z,100673.17
2022-08-22T04:57:29.156Z,100683.14
2022-08-22T04:58:52.795Z,100683.69
2022-08-22T05:00:01.152Z,100682.58
2022-08-22T05:01:07.897Z,100685.36
2022-08-22T05:02:13.681Z,100682.30
2022-08-22T05:03:20.271Z,100685.88
2022-08-22T05:04:29.660Z,100682.53
2022-08-22T05:05:36.312Z,100678.64
2022-08-22T05:06:43.063Z,100681.94
2022-08-22T05:07:49.774Z,100682.48
2022-08-22T05:08:55.267Z,100680.25
2022-08-22T05:10:11.694Z,100677.99
2022-08-22T05:11:09.394Z,100695.22
2022-08-22T05:12:16.053Z,100685.45
2022-08-22T05:13:28.896Z,100689.61
2022-08-22T05:14:41.498Z,100689.01
2022-08-22T05:15:51.020Z,100685.95
2022-08-22T05:16:57.548Z,100690.11
2022-08-22T05:18:04.226Z,100693.44
2022-08-22T05:19:24.987Z,100687.59
2022-08-22T05:20:27.599Z,100681.75
2022-08-22T05:21:34.422Z,100681.14
2022-08-22T05:22:44.034Z,100693.93
2022-08-22T05:23:53.289Z,100686.97
2022-08-22T05:25:10.432Z,100688.59
2022-08-22T05:26:15.549Z,100688.31
2022-08-22T05:27:27.806Z,100688.86
2022-08-22T05:28:42.662Z,100683.81
2022-08-22T05:29:49.151Z,100688.81
2022-08-22T05:30:54.138Z,100682.95
2022-08-22T05:32:03.572Z,100684.30
2022-08-22T05:33:19.509Z,100685.14
2022-08-22T05:34:25.813Z,100676.19
2022-08-22T05:35:38.693Z,100680.64
2022-08-22T05:36:45.580Z,100682.30
2022-08-22T05:37:52.674Z,100678.11
2022-08-22T05:39:02.481Z,100670.28
2022-08-22T05:40:08.437Z,100685.85
2022-08-22T05:41:15.154Z,100675.27
2022-08-22T05:42:25.557Z,100676.62
2022-08-22T05:43:28.880Z,100675.50
2022-08-22T05:44:35.009Z,100674.92
2022-08-22T05:45:41.610Z,100676.55
2022-08-22T05:46:49.465Z,100681.00
2022-08-22T05:48:04.967Z,100679.59
2022-08-22T05:49:14.583Z,100679.27
2022-08-22T05:50:25.897Z,100672.30
2022-08-22T05:52:04.608Z,100686.76
2022-08-22T05:53:13.874Z,100679.75
2022-08-22T05:54:33.799Z,100677.52
2022-08-22T05:55:55.859Z,100692.77
2022-08-22T05:57:11.741Z,100685.25
2022-08-22T05:58:43.911Z,100689.41
2022-08-22T05:59:50.752Z,100691.08
2022-08-22T06:01:00.670Z,100693.54
2022-08-22T06:02:16.541Z,100688.52
2022-08-22T06:03:29.405Z,100688.23
2022-08-22T06:04:39.592Z,100687.08
2022-08-22T06:05:46.642Z,100692.09
2022-08-22T06:07:05.691Z,100684.29
2022-08-22T06:08:33.878Z,100679.23
2022-08-22T06:09:49.767Z,100689.78
2022-08-22T06:10:56.465Z,100691.13
2022-08-22T06:12:06.319Z,100681.37
2022-08-22T06:13:17.429Z,100691.89
2022-08-22T06:14:47.228Z,100687.69
2022-08-22T06:16:05.172Z,100680.68
2022-08-22T06:17:24.409Z,100675.66
2022-08-22T06:18:28.750Z,100678.98
2022-08-22T06:19:36.066Z,100688.96
2022-08-22T06:20:43.579Z,100683.94
2022-08-22T06:21:50.384Z,100670.23
2022-08-22T06:22:58.335Z,100688.30
2022-08-22T06:24:04.630Z,100684.91
2022-08-22T06:25:14.198Z,100667.61
2022-08-22T06:26:20.226Z,100678.14
2022-08-22T06:27:27.223Z,100671.98
2022-08-22T06:28:36.091Z,100669.41
2022-08-22T06:29:42.984Z,100680.27
2022-08-22T06:30:47.328Z,100672.12
2022-08-22T06:31:50.850Z,100686.58
2022-08-22T06:32:59.388Z,100675.95
2022-08-22T06:34:05.555Z,100677.31
2022-08-22T06:35:21.138Z,100681.44
2022-08-22T06:36:32.369Z,100679.19
2022-08-22T06:37:40.925Z,100684.97
2022-08-22T06:39:08.703Z,100681.63
2022-08-22T06:40:15.882Z,100686.58
2022-08-22T06:41:21.646Z,100681.25
2022-08-22T06:42:28.479Z,100684.55
2022-08-22T06:43:35.152Z,100680.63
2022-08-22T06:44:41.242Z,100691.19
2022-08-22T06:45:44.759Z,100686.12
2022-08-22T06:46:50.654Z,100685.53
2022-08-22T06:48:00.580Z,100690.19
2022-08-22T06:49:04.173Z,100690.19
2022-08-22T06:50:14.037Z,100683.98
2022-08-22T06:51:19.421Z,100688.44
2022-08-22T06:52:25.730Z,100685.06
2022-08-22T06:53:48.134Z,100690.01
2022-08-22T06:54:54.422Z,100694.16
2022-08-22T06:56:02.498Z,100702.73
2022-08-22T06:57:08.316Z,100694.91
2022-08-22T06:58:39.404Z,100699.55
2022-08-22T06:59:43.445Z,100699.55
2022-08-22T07:00:58.805Z,100707.30
2022-08-22T07:02:04.739Z,100703.58
2022-08-22T07:03:11.464Z,100703.58
2022-08-22T07:04:15.504Z,100706.28
2022-08-22T07:05:22.079Z,100706.28
2022-08-22T07:06:43.699Z,100696.48
2022-08-22T07:07:47.537Z,100701.14
2022-08-22T07:08:55.211Z,100701.14
2022-08-22T07:09:58.468Z,100706.66
2022-08-22T07:11:05.397Z,100706.66
2022-08-22T07:12:15.144Z,100708.52
2022-08-22T07:13:19.782Z,100708.52
2022-08-22T07:14:29.302Z,100697.06
2022-08-22T07:15:36.073Z,100699.25
2022-08-22T07:16:42.875Z,100695.53
2022-08-22T07:17:52.335Z,100695.53
2022-08-22T07:18:55.734Z,100697.99
2022-08-22T07:20:23.730Z,100693.77
2022-08-22T07:21:30.405Z,100697.92
2022-08-22T07:22:37.453Z,100702.88
2022-08-22T07:23:46.019Z,100691.41
2022-08-22T07:24:55.753Z,100697.49
2022-08-22T07:26:17.627Z,100694.10
2022-08-22T07:27:59.596Z,100698.55
2022-08-22T07:29:11.228Z,100698.22
2022-08-22T07:30:16.017Z,100695.95
2022-08-22T07:31:30.596Z,100693.70
2022-08-22T07:32:53.675Z,100693.70
2022-08-22T07:34:12.899Z,100692.53
2022-08-22T07:35:20.014Z,100693.89
2022-08-22T07:36:39.146Z,100692.76
2022-08-22T07:38:09.786Z,100692.76
2022-08-22T07:39:25.689Z,100689.67
2022-08-22T07:40:53.278Z,100683.45
2022-08-22T07:42:00.036Z,100688.73
2022-08-22T07:43:25.252Z,100686.44
2022-08-22T07:45:54.450Z,100688.70
2022-08-22T07:47:09.999Z,100680.25
2022-08-22T07:48:25.873Z,100689.12
2022-08-22T07:49:32.360Z,100687.69
2022-08-22T07:50:38.965Z,100684.26
2022-08-22T07:51:45.627Z,100685.61
2022-08-22T07:52:50.612Z,100695.31
2022-08-22T07:54:09.242Z,100689.16
2022-08-22T07:55:24.530Z,100680.97
2022-08-22T07:56:37.691Z,100688.73
2022-08-22T07:57:44.080Z,100688.93
2022-08-22T07:58:50.751Z,100686.66
2022-08-22T07:59:57.037Z,100688.32
2022-08-22T08:01:00.997Z,100692.44
2022-08-22T08:02:07.696Z,100680.95
2022-08-22T08:03:12.807Z,100684.25
2022-08-22T08:04:21.320Z,100680.84
2022-08-22T08:05:28.110Z,100686.12
2022-08-22T08:06:31.991Z,100683.52
2022-08-22T08:07:35.082Z,100685.18
2022-08-22T08:08:44.195Z,100688.47
2022-08-22T08:09:56.517Z,100675.02
2022-08-22T08:11:01.636Z,100667.99
2022-08-22T08:12:06.362Z,100672.11
2022-08-22T08:13:13.682Z,100667.05
2022-08-22T08:14:17.627Z,100666.70
2022-08-22T08:15:23.516Z,100672.51
2022-08-22T08:16:30.217Z,100676.63
2022-08-22T08:17:35.212Z,100668.76
2022-08-22T08:18:40.006Z,100681.29
2022-08-22T08:19:46.758Z,100667.50
2022-08-22T08:20:53.892Z,100680.00
2022-08-22T08:21:58.463Z,100670.17
2022-08-22T08:23:03.297Z,100682.36
2022-08-22T08:24:10.060Z,100677.29
2022-08-22T08:25:19.235Z,100675.05
2022-08-22T08:26:26.035Z,100673.57
2022-08-22T08:28:00.165Z,100671.30
2022-08-22T08:28:57.635Z,100675.41
2022-08-22T08:30:04.208Z,100678.73
2022-08-22T08:32:33.880Z,100679.16
2022-08-22T08:33:40.543Z,100676.32
2022-08-22T08:34:44.262Z,100674.01
2022-08-22T08:36:02.062Z,100680.95
2022-08-22T08:37:12.884Z,100664.34
2022-08-22T08:38:19.270Z,100679.68
2022-08-22T08:39:37.989Z,100676.23
2022-08-22T08:40:59.133Z,100673.95
2022-08-22T08:42:22.406Z,100678.89
2022-08-22T08:43:44.108Z,100677.45
2022-08-22T08:45:05.927Z,100679.10
2022-08-22T08:46:29.280Z,100677.63
2022-08-22T08:48:00.678Z,100676.17
2022-08-22T08:49:16.328Z,100674.69
2022-08-22T08:50:39.600Z,100664.02
2022-08-22T08:52:04.819Z,100671.75
2022-08-22T08:53:17.564Z,100674.23
2022-08-22T08:54:39.033Z,100671.95
2022-08-22T08:55:47.612Z,100674.41
2022-08-22T08:57:12.504Z,100675.75
2022-08-22T08:59:45.040Z,100680.44
2022-08-22T09:01:12.003Z,100675.64
2022-08-22T09:02:34.796Z,100654.09
2022-08-22T09:06:50.798Z,100673.22
2022-08-22T09:08:16.428Z,100674.53
2022-08-22T09:09:40.091Z,100670.28
2022-08-22T09:11:09.752Z,100670.77
2022-08-22T09:12:56.440Z,100681.33
2022-08-22T09:14:17.666Z,100672.62
2022-08-22T09:15:37.402Z,100680.67
2022-08-22T09:16:52.049Z,100677.55
2022-08-22T09:18:04.745Z,100671.64
2022-08-22T09:19:20.834Z,100671.30
2022-08-22T09:20:34.562Z,100670.16
2022-08-22T09:22:14.681Z,100683.52
2022-08-22T09:23:40.860Z,100677.58
2022-08-22T09:25:01.419Z,100674.47
2022-08-22T09:26:10.679Z,100674.98
2022-08-22T09:27:20.960Z,100672.66
2022-08-22T09:28:41.735Z,100682.41
2022-08-22T09:29:59.686Z,100676.80
2022-08-22T09:31:47.806Z,100671.72
2022-08-22T09:32:49.193Z,100672.20
2022-08-22T09:33:55.721Z,100670.73
2022-08-22T09:35:08.474Z,100668.42
2022-08-22T09:36:33.707Z,100673.70
2022-08-22T09:37:46.256Z,100678.67
2022-08-22T09:38:57.435Z,100676.03
2022-08-22T09:40:25.193Z,100661.37
2022-08-22T09:41:51.920Z,100673.08
2022-08-22T09:43:21.205Z,100673.27
2022-08-22T09:44:39.582Z,100667.86
2022-08-22T09:45:45.004Z,100667.52
2022-08-22T09:46:56.235Z,100664.40
2022-08-22T09:48:07.296Z,100664.91
2022-08-22T09:49:23.311Z,100660.61
2022-08-22T09:50:54.561Z,100658.00
2022-08-22T09:52:14.309Z,100666.05
2022-08-22T09:53:30.171Z,100676.30
2022-08-22T09:54:39.942Z,100654.05
2022-08-22T09:55:58.788Z,100668.22
2022-08-22T09:57:36.299Z,100664.78
2022-08-22T09:59:02.461Z,100670.22
2022-08-22T10:00:15.049Z,100678.78
2022-08-22T10:01:21.879Z,100658.53
2022-08-22T10:02:36.119Z,100665.94
2022-08-22T10:04:05.275Z,100654.88
2022-08-22T10:05:40.336Z,100661.47
2022-08-22T10:06:24.531Z,100654.58
2022-08-22T10:07:37.155Z,100663.17
2022-08-22T10:08:50.194Z,100649.31
2022-08-22T10:10:03.502Z,100649.45
2022-08-22T10:11:13.431Z,100654.09
2022-08-22T10:12:20.109Z,100664.31
2022-08-22T10:13:46.474Z,100655.23
2022-08-22T10:14:57.879Z,100667.78
2022-08-22T10:16:21.097Z,100654.58
2022-08-22T10:17:28.006Z,100656.23
2022-08-22T10:19:00.827Z,100657.38
2022-08-22T10:20:22.614Z,100659.36
2022-08-22T10:21:29.490Z,100657.70
2022-08-22T10:23:02.601Z,100654.08
2022-08-22T10:24:25.110Z,100662.81
2022-08-22T10:25:52.402Z,100659.18
2022-08-22T10:26:59.247Z,100644.36
2022-08-22T10:28:11.462Z,100641.56
2022-08-22T10:29:28.057Z,100639.55
2022-08-22T10:30:35.178Z,100641.20
2022-08-22T10:31:59.174Z,100648.14
2022-08-22T10:33:02.805Z,100652.60
2022-08-22T10:34:10.219Z,100639.41
2022-08-22T10:35:22.696Z,100646.31
2022-08-22T10:36:40.412Z,100647.14
2022-08-22T10:37:58.567Z,100655.23
2022-08-22T10:39:11.083Z,100643.66
2022-08-22T10:42:10.921Z,100646.93
2022-08-22T10:43:29.929Z,100652.07
2022-08-22T10:44:59.273Z,100646.81
2022-08-22T10:46:12.469Z,100649.12
2022-08-22T10:47:20.438Z,100646.99
2022-08-22T10:48:36.308Z,100651.77
2022-08-22T10:49:55.512Z,100655.73
2022-08-22T10:51:19.858Z,100653.75
2022-08-22T10:52:35.836Z,100650.95
2022-08-22T10:53:57.416Z,100657.03
2022-08-22T10:55:09.839Z,100648.30
2022-08-22T10:56:29.283Z,100653.25
2022-08-22T10:57:42.190Z,100656.53
2022-08-22T10:58:55.647Z,100641.50
2022-08-22T11:00:04.965Z,100644.48
2022-08-22T11:01:37.070Z,100655.52
2022-08-22T11:02:26.304Z,100649.73
2022-08-22T11:03:49.363Z,100650.70
2022-08-22T11:05:10.939Z,100645.27
2022-08-22T11:06:45.363Z,100652.70
2022-08-22T11:08:01.817Z,100655.16
2022-08-22T11:09:20.525Z,100652.02
2022-08-22T11:10:32.890Z,100650.05
2022-08-22T11:11:44.323Z,100645.26
2022-08-22T11:12:54.127Z,100641.30
2022-08-22T11:14:17.124Z,100641.30
2022-08-22T11:15:46.243Z,100650.55
2022-08-22T11:17:23.647Z,100647.37
2022-08-22T11:18:20.028Z,100644.25
2022-08-22T11:19:39.063Z,100641.11
2022-08-22T11:20:58.566Z,100651.66
2022-08-22T11:22:27.573Z,100644.56
2022-08-22T11:23:48.331Z,100643.05
2022-08-22T11:25:14.825Z,100635.95
2022-08-22T11:26:30.077Z,100645.70
2022-08-22T11:27:52.234Z,100651.78
2022-08-22T11:29:13.167Z,100650.30
2022-08-22T11:30:18.383Z,100643.49
2022-08-22T11:31:27.627Z,100645.97
2022-08-22T11:32:36.117Z,100638.70
2022-08-22T11:33:51.857Z,100643.49
2022-08-22T11:35:04.845Z,100643.85
2022-08-22T11:36:19.719Z,100643.36
2022-08-22T11:37:48.014Z,100644.52
2022-08-22T11:39:18.464Z,100650.48
2022-08-22T11:40:37.640Z,100642.39
2022-08-22T11:41:53.507Z,100642.72
2022-08-22T11:43:35.772Z,100637.11
2022-08-22T11:44:59.766Z,100648.00
2022-08-22T11:46:19.822Z,100646.03
2022-08-22T11:47:26.550Z,100643.36
2022-08-22T11:48:55.145Z,100638.70
2022-08-22T11:50:01.716Z,100647.77
2022-08-22T11:51:13.575Z,100643.61
2022-08-22T11:53:01.684Z,100641.10
2022-08-22T11:53:57.254Z,100634.47
2022-08-22T11:55:32.523Z,100628.84
2022-08-22T11:56:40.142Z,100633.91
2022-08-22T11:57:49.762Z,100624.48
2022-08-22T11:59:09.209Z,100627.42
2022-08-22T12:00:25.991Z,100636.81
2022-08-22T12:01:52.238Z,100632.51
2022-08-22T12:03:01.963Z,100637.77
2022-08-22T12:04:18.823Z,100634.95
2022-08-22T12:05:26.440Z,100640.24
2022-08-22T12:07:00.609Z,100633.80
2022-08-22T12:08:11.381Z,100640.24
2022-08-22T12:09:21.084Z,100635.45
2022-08-22T12:10:32.168Z,100629.83
2022-08-22T12:12:01.345Z,100636.27
2022-08-22T12:13:12.971Z,100642.39
2022-08-22T12:14:21.009Z,100634.42
2022-08-22T12:15:29.585Z,100636.56
2022-08-22T12:16:56.177Z,100637.02
2022-08-22T12:18:21.406Z,100636.36
2022-08-22T12:19:33.089Z,100633.67
2022-08-22T12:20:58.592Z,100617.77
2022-08-22T12:22:34.189Z,100634.78
2022-08-22T12:23:55.902Z,100624.19
2022-08-22T12:25:03.298Z,100617.53
2022-08-22T12:26:19.309Z,100624.09
2022-08-22T12:27:30.992Z,100633.52
2022-08-22T12:28:43.589Z,100624.87
2022-08-22T12:30:13.894Z,100624.87
2022-08-22T12:31:35.781Z,100636.73
2022-08-22T12:32:43.738Z,100625.59
2022-08-22T12:33:59.800Z,100630.52
2022-08-22T12:35:14.010Z,100616.45
2022-08-22T12:36:21.614Z,100627.03
2022-08-22T12:37:52.247Z,100620.24
2022-08-22T12:38:54.771Z,100621.07
2022-08-22T12:40:19.658Z,100633.94
2022-08-22T12:41:46.801Z,100622.69
2022-08-22T12:43:02.201Z,100630.30
2022-08-22T12:44:28.293Z,100630.67
2022-08-22T12:45:36.999Z,100627.86
2022-08-22T12:47:04.348Z,100633.82
2022-08-22T12:48:22.541Z,100640.27
2022-08-22T12:49:34.413Z,100645.07
2022-08-22T12:50:47.762Z,100634.16
2022-08-22T12:52:09.448Z,100630.52
2022-08-22T12:53:34.201Z,100634.52
2022-08-22T12:54:50.044Z,100634.86
2022-08-22T12:55:56.635Z,100635.20
2022-08-22T12:58:42.736Z,100631.01
2022-08-22T12:59:50.581Z,100621.34
2022-08-22T13:00:57.390Z,100634.09
2022-08-22T13:02:04.646Z,100631.28
2022-08-22T13:03:11.314Z,100640.09
2022-08-22T13:04:33.003Z,100639.27
2022-08-22T13:05:34.223Z,100631.16
2022-08-22T13:06:43.491Z,100629.17
2022-08-22T13:08:04.358Z,100629.17
2022-08-22T13:09:28.506Z,100626.36
2022-08-22T13:10:43.006Z,100633.15
2022-08-22T13:11:51.573Z,100624.71
2022-08-22T13:12:57.919Z,100637.95
2022-08-22T13:14:02.278Z,100642.75
2022-08-22T13:15:10.902Z,100625.88
2022-08-22T13:16:19.005Z,100635.50
2022-08-22T13:17:24.308Z,100635.50
2022-08-22T13:18:37.956Z,100632.69
2022-08-22T13:20:01.360Z,100635.50
2022-08-22T13:21:10.389Z,100631.86
2022-08-22T13:22:15.858Z,100628.23
2022-08-22T13:23:43.848Z,100641.95
2022-08-22T13:25:08.851Z,100648.38
2022-08-22T13:26:32.158Z,100627.52
2022-08-22T13:27:31.119Z,100650.84
2022-08-22T13:28:37.781Z,100637.61
2022-08-22T13:29:47.146Z,100626.85
2022-08-22T13:30:52.852Z,100633.30
2022-08-22T13:32:02.393Z,100630.61
2022-08-22T13:33:09.933Z,100632.72
2022-08-22T13:34:39.436Z,100631.22
2022-08-22T13:35:51.707Z,100632.17
2022-08-22T13:36:58.615Z,100638.41
2022-08-22T13:38:12.246Z,100632.93
2022-08-22T13:39:19.693Z,100638.34
2022-08-22T13:40:29.291Z,100638.13
2022-08-22T13:41:39.171Z,100637.93
2022-08-22T13:42:50.234Z,100636.88
2022-08-22T13:44:10.826Z,100633.02
2022-08-22T13:45:17.625Z,100637.60
2022-08-22T13:46:31.345Z,100641.02
2022-08-22T13:47:40.038Z,100627.54
2022-08-22T13:48:47.060Z,100630.50
2022-08-22T13:49:55.478Z,100633.09
2022-08-22T13:51:05.468Z,100630.38
2022-08-22T13:52:36.939Z,100638.59
2022-08-22T13:53:50.008Z,100639.53
2022-08-22T13:55:04.623Z,100638.14
2022-08-22T13:56:19.737Z,100641.95
2022-08-22T13:57:42.218Z,100642.55
2022-08-22T13:58:48.437Z,100637.02
2022-08-22T14:00:28.638Z,100644.41
2022-08-22T14:01:38.115Z,100638.88
2022-08-22T14:03:02.738Z,100631.84
2022-08-22T14:04:35.762Z,100643.25
2022-08-22T14:05:43.947Z,100644.66
2022-08-22T14:06:50.744Z,100631.50
2022-08-22T14:08:01.466Z,100641.70
2022-08-22T14:10:31.098Z,100634.67
2022-08-22T14:11:43.804Z,100646.85
2022-08-22T14:12:53.337Z,100634.09
2022-08-22T14:13:59.619Z,100634.20
2022-08-22T14:15:08.859Z,100631.03
2022-08-22T14:16:24.676Z,100641.58
2022-08-22T14:17:42.830Z,100630.78
2022-08-22T14:18:58.757Z,100638.07
2022-08-22T14:21:28.458Z,100632.76
2022-08-22T14:22:36.567Z,100630.44
2022-08-22T14:23:40.198Z,100642.89
2022-08-22T14:24:55.902Z,100635.59
2022-08-22T14:25:57.178Z,100635.59
2022-08-22T14:27:09.681Z,100633.95
2022-08-22T14:28:28.192Z,100632.30
2022-08-22T14:29:34.908Z,100641.14